createdAt,value
2019-02-06T00:01:01.644Z,19.87
2019-02-06T00:03:33.076Z,19.92
2019-02-06T00:06:06.253Z,21.42
2019-02-06T00:08:39.098Z,20.57
2019-02-06T00:11:11.113Z,21.73
2019-02-06T00:13:41.804Z,22.02
2019-02-06T00:16:12.516Z,22.13
2019-02-06T00:18:43.123Z,19.50
2019-02-06T00:21:13.760Z,19.70
2019-02-06T00:23:46.645Z,19.95
2019-02-06T00:26:17.548Z,17.20
2019-02-06T00:28:48.093Z,19.27
2019-02-06T00:31:18.702Z,17.77
2019-02-06T00:33:49.324Z,20.25
2019-02-06T00:36:19.981Z,20.00
2019-02-06T00:38:52.057Z,17.95
2019-02-06T00:41:22.669Z,18.20
2019-02-06T00:43:53.321Z,19.60
2019-02-06T00:46:23.925Z,18.77
2019-02-06T00:48:54.588Z,20.60
2019-02-06T00:51:25.229Z,20.05
2019-02-06T00:53:55.860Z,17.35
2019-02-06T00:56:26.540Z,19.17
2019-02-06T00:58:57.596Z,16.95
2019-02-06T01:01:28.196Z,18.80
2019-02-06T01:03:58.805Z,20.77
2019-02-06T01:06:29.564Z,19.23
2019-02-06T01:09:01.202Z,18.48
2019-02-06T01:11:32.857Z,21.00
2019-02-06T01:14:03.525Z,21.15
2019-02-06T01:16:35.204Z,19.70
2019-02-06T01:19:06.286Z,19.50
2019-02-06T01:21:37.005Z,17.02
2019-02-06T01:24:07.560Z,18.62
2019-02-06T01:26:38.121Z,17.77
2019-02-06T01:29:08.632Z,19.80
2019-02-06T01:31:39.351Z,20.02
2019-02-06T01:34:10.236Z,20.12
2019-02-06T01:36:40.806Z,19.10
2019-02-06T01:39:12.976Z,19.12
2019-02-06T01:41:43.535Z,18.15
2019-02-06T01:44:14.116Z,22.22
2019-02-06T01:46:44.663Z,20.97
2019-02-06T01:49:15.193Z,20.12
2019-02-06T01:51:45.749Z,19.73
2019-02-06T01:54:16.388Z,18.48
2019-02-06T01:56:46.964Z,20.03
2019-02-06T01:59:17.619Z,19.05
2019-02-06T02:01:48.573Z,21.27
2019-02-06T02:04:19.082Z,23.20
2019-02-06T02:06:49.600Z,18.27
2019-02-06T02:09:20.779Z,20.12
2019-02-06T02:11:51.464Z,20.60
2019-02-06T02:14:22.012Z,19.87
2019-02-06T02:16:52.596Z,18.27
2019-02-06T02:19:23.140Z,18.87
2019-02-06T02:21:53.786Z,19.60
2019-02-06T02:24:24.348Z,18.90
2019-02-06T02:26:54.972Z,16.20
2019-02-06T02:29:26.014Z,18.90
2019-02-06T02:31:56.820Z,18.65
2019-02-06T02:34:27.479Z,18.60
2019-02-06T02:36:58.030Z,18.67
2019-02-06T02:39:28.649Z,14.60
2019-02-06T02:41:59.697Z,18.65
2019-02-06T02:44:30.344Z,17.57
2019-02-06T02:47:00.842Z,16.80
2019-02-06T02:49:31.426Z,18.42
2019-02-06T02:52:02.045Z,17.90
2019-02-06T02:54:32.650Z,16.52
2019-02-06T02:57:03.354Z,16.95
2019-02-06T02:59:33.873Z,16.57
2019-02-06T03:02:16.077Z,16.45
2019-02-06T03:04:51.081Z,17.35
2019-02-06T03:07:22.232Z,16.32
2019-02-06T03:09:52.819Z,15.08
2019-02-06T03:12:23.406Z,16.07
2019-02-06T03:14:54.035Z,14.73
2019-02-06T03:17:25.748Z,13.88
2019-02-06T03:19:56.326Z,13.90
2019-02-06T03:22:26.941Z,14.50
2019-02-06T03:24:57.477Z,13.30
2019-02-06T03:27:28.094Z,13.00
2019-02-06T03:29:58.659Z,12.47
2019-02-06T03:32:29.223Z,11.38
2019-02-06T03:35:00.098Z,11.78
2019-02-06T03:37:30.967Z,12.28
2019-02-06T03:40:01.595Z,11.12
2019-02-06T03:42:32.165Z,11.25
2019-02-06T03:45:02.832Z,10.25
2019-02-06T03:47:33.414Z,11.60
2019-02-06T03:50:04.766Z,11.38
2019-02-06T03:52:35.427Z,10.50
2019-02-06T03:55:06.797Z,10.60
2019-02-06T03:57:37.366Z,9.33
2019-02-06T04:00:11.708Z,9.30
2019-02-06T04:02:42.370Z,8.98
2019-02-06T04:05:13.247Z,8.68
2019-02-06T04:07:43.885Z,8.53
2019-02-06T04:10:15.113Z,7.72
2019-02-06T04:12:45.797Z,7.67
2019-02-06T04:15:16.858Z,7.50
2019-02-06T04:17:47.536Z,7.10
2019-02-06T04:20:18.425Z,7.37
2019-02-06T04:22:51.593Z,7.87
2019-02-06T04:25:24.746Z,7.03
2019-02-06T04:27:55.864Z,7.47
2019-02-06T04:30:30.275Z,6.87
2019-02-06T04:33:09.452Z,7.45
2019-02-06T04:35:40.012Z,6.87
2019-02-06T04:38:10.654Z,6.90
2019-02-06T04:40:41.457Z,6.45
2019-02-06T04:43:12.006Z,6.00
2019-02-06T04:45:42.686Z,5.83
2019-02-06T04:48:13.208Z,5.87
2019-02-06T04:50:43.844Z,5.00
2019-02-06T04:53:14.504Z,5.87
2019-02-06T04:55:46.247Z,5.00
2019-02-06T04:58:16.918Z,5.22
2019-02-06T05:00:48.625Z,4.97
2019-02-06T05:03:19.300Z,4.42
2019-02-06T05:05:50.929Z,4.65
2019-02-06T05:08:22.033Z,4.60
2019-02-06T05:10:52.672Z,4.85
2019-02-06T05:13:23.259Z,4.20
2019-02-06T05:15:53.873Z,4.33
2019-02-06T05:18:24.388Z,3.67
2019-02-06T05:20:55.450Z,3.42
2019-02-06T05:23:25.980Z,3.90
2019-02-06T05:26:02.523Z,3.25
2019-02-06T05:28:34.657Z,3.22
2019-02-06T05:31:05.365Z,3.40
2019-02-06T05:33:36.000Z,3.60
2019-02-06T05:36:06.738Z,3.20
2019-02-06T05:38:37.392Z,3.40
2019-02-06T05:41:09.164Z,3.05
2019-02-06T05:43:39.916Z,2.95
2019-02-06T05:46:10.485Z,2.75
2019-02-06T05:48:41.105Z,3.02
2019-02-06T05:51:11.716Z,2.10
2019-02-06T05:53:42.289Z,2.30
2019-02-06T05:56:14.804Z,2.20
2019-02-06T05:58:45.308Z,2.40
2019-02-06T06:01:17.860Z,2.27
2019-02-06T06:03:48.404Z,2.72
2019-02-06T06:06:19.011Z,2.40
2019-02-06T06:08:49.564Z,2.37
2019-02-06T06:11:20.300Z,3.12
2019-02-06T06:13:50.764Z,5.10
2019-02-06T06:16:21.324Z,7.03
2019-02-06T06:18:51.861Z,7.75
2019-02-06T06:21:22.929Z,8.15
2019-02-06T06:23:53.952Z,6.45
2019-02-06T06:26:25.043Z,7.30
2019-02-06T06:28:56.136Z,7.97
2019-02-06T06:31:27.081Z,6.30
2019-02-06T06:33:58.214Z,4.50
2019-02-06T06:36:29.168Z,4.90
2019-02-06T06:39:00.083Z,4.87
2019-02-06T06:41:30.951Z,4.12
2019-02-06T06:44:01.875Z,3.20
2019-02-06T06:46:32.421Z,2.45
2019-02-06T06:49:02.965Z,2.42
2019-02-06T06:51:33.877Z,2.72
2019-02-06T06:54:04.916Z,2.67
2019-02-06T06:56:36.216Z,3.50
2019-02-06T06:59:06.989Z,3.10
2019-02-06T07:01:37.896Z,3.30
2019-02-06T07:04:08.777Z,3.70
2019-02-06T07:06:39.630Z,3.42
2019-02-06T07:09:10.670Z,4.10
2019-02-06T07:11:41.737Z,4.25
2019-02-06T07:14:12.628Z,3.65
2019-02-06T07:16:43.498Z,3.15
2019-02-06T07:19:14.411Z,3.10
2019-02-06T07:21:45.397Z,3.15
2019-02-06T07:24:16.396Z,2.83
2019-02-06T07:26:47.473Z,3.45
2019-02-06T07:29:17.952Z,3.77
2019-02-06T07:31:48.466Z,6.35
2019-02-06T07:34:19.554Z,4.55
2019-02-06T07:36:51.876Z,4.20
2019-02-06T07:39:22.748Z,3.87
2019-02-06T07:41:53.641Z,5.00
2019-02-06T07:44:24.632Z,4.25
2019-02-06T07:46:55.595Z,5.30
2019-02-06T07:49:26.621Z,4.42
2019-02-06T07:51:57.218Z,4.08
2019-02-06T07:54:28.701Z,3.80
2019-02-06T07:56:59.660Z,4.27
2019-02-06T07:59:34.076Z,4.53
2019-02-06T08:02:05.024Z,4.50
2019-02-06T08:04:36.056Z,4.37
2019-02-06T08:07:06.678Z,5.03
2019-02-06T08:09:37.212Z,5.50
2019-02-06T08:12:08.152Z,4.83
2019-02-06T08:14:39.306Z,4.08
2019-02-06T08:17:10.331Z,4.47
2019-02-06T08:19:41.277Z,4.28
2019-02-06T08:22:12.328Z,4.00
2019-02-06T08:24:43.260Z,5.05
2019-02-06T08:27:14.234Z,5.22
2019-02-06T08:29:45.142Z,4.25
2019-02-06T08:32:15.910Z,4.40
2019-02-06T08:34:46.813Z,3.35
2019-02-06T08:37:17.768Z,3.22
2019-02-06T08:39:48.897Z,2.95
2019-02-06T08:42:19.955Z,3.95
2019-02-06T08:44:50.883Z,3.62
2019-02-06T08:47:21.393Z,3.30
2019-02-06T08:49:52.157Z,3.58
2019-02-06T08:52:23.101Z,5.45
2019-02-06T08:54:53.672Z,6.28
2019-02-06T08:57:24.598Z,5.75
2019-02-06T08:59:55.195Z,3.65
2019-02-06T09:02:25.732Z,3.87
2019-02-06T09:04:56.245Z,4.28
2019-02-06T09:07:27.008Z,3.27
2019-02-06T09:09:57.617Z,4.47
2019-02-06T09:12:28.129Z,4.37
2019-02-06T09:14:58.616Z,5.25
2019-02-06T09:17:29.151Z,4.10
2019-02-06T09:19:59.640Z,3.40
2019-02-06T09:22:31.601Z,5.60
2019-02-06T09:25:02.943Z,3.80
2019-02-06T09:27:33.925Z,4.62
2019-02-06T09:30:05.286Z,3.60
2019-02-06T09:32:35.814Z,4.08
2019-02-06T09:35:06.588Z,3.40
2019-02-06T09:37:37.096Z,4.30
2019-02-06T09:40:07.904Z,5.20
2019-02-06T09:42:38.514Z,6.33
2019-02-06T09:45:10.232Z,6.62
2019-02-06T09:47:40.910Z,6.10
2019-02-06T09:50:15.581Z,4.05
2019-02-06T09:52:46.302Z,3.90
2019-02-06T09:55:17.399Z,4.80
2019-02-06T09:57:48.273Z,4.47
2019-02-06T10:00:21.522Z,3.92
2019-02-06T10:02:52.031Z,4.00
2019-02-06T10:05:22.908Z,3.70
2019-02-06T10:07:53.820Z,3.27
2019-02-06T10:10:25.096Z,3.70
2019-02-06T10:12:55.592Z,3.85
2019-02-06T10:15:28.317Z,4.47
2019-02-06T10:17:59.701Z,4.53
2019-02-06T10:20:45.250Z,10.08
2019-02-06T10:23:15.868Z,5.78
2019-02-06T10:25:47.953Z,5.25
2019-02-06T10:28:18.467Z,3.33
2019-02-06T10:30:50.841Z,4.90
2019-02-06T10:33:21.705Z,6.30
2019-02-06T10:35:52.632Z,5.28
2019-02-06T10:38:23.248Z,4.35
2019-02-06T10:40:53.777Z,3.95
2019-02-06T10:43:32.163Z,4.08
2019-02-06T10:45:56.797Z,3.60
2019-02-06T10:48:27.321Z,4.08
2019-02-06T10:50:58.566Z,3.77
2019-02-06T10:53:29.209Z,3.58
2019-02-06T10:56:00.561Z,2.70
2019-02-06T10:58:32.158Z,2.45
2019-02-06T11:01:03.745Z,2.90
2019-02-06T11:03:34.249Z,3.47
2019-02-06T11:06:05.165Z,3.75
2019-02-06T11:08:35.753Z,3.40
2019-02-06T11:11:06.273Z,2.90
2019-02-06T11:13:36.905Z,3.58
2019-02-06T11:16:07.903Z,4.40
2019-02-06T11:18:38.496Z,4.67
2019-02-06T11:21:10.678Z,4.58
2019-02-06T11:23:41.628Z,4.22
2019-02-06T11:26:12.101Z,4.30
2019-02-06T11:28:43.801Z,3.87
2019-02-06T11:31:14.720Z,3.98
2019-02-06T11:33:45.261Z,3.65
2019-02-06T11:36:23.833Z,3.25
2019-02-06T11:38:48.335Z,3.00
2019-02-06T11:41:18.835Z,2.47
2019-02-06T11:43:49.340Z,2.83
2019-02-06T11:46:20.168Z,2.87
2019-02-06T11:48:54.943Z,2.87
2019-02-06T11:51:25.526Z,2.72
2019-02-06T11:53:56.087Z,2.67
2019-02-06T11:56:27.035Z,2.17
2019-02-06T11:58:57.960Z,2.85
2019-02-06T12:01:35.958Z,2.80
2019-02-06T12:04:06.580Z,2.80
2019-02-06T12:06:37.161Z,2.30
2019-02-06T12:09:13.095Z,2.45
2019-02-06T12:11:44.042Z,2.80
2019-02-06T12:14:15.380Z,2.70
2019-02-06T12:16:46.276Z,2.62
2019-02-06T12:19:17.134Z,2.70
2019-02-06T12:21:49.232Z,2.67
2019-02-06T12:24:20.361Z,2.65
2019-02-06T12:26:50.839Z,3.00
2019-02-06T12:29:21.721Z,2.67
2019-02-06T12:31:53.271Z,2.85
2019-02-06T12:34:23.864Z,3.33
2019-02-06T12:36:54.429Z,3.17
2019-02-06T12:39:25.191Z,3.20
2019-02-06T12:41:56.540Z,3.72
2019-02-06T12:44:27.144Z,3.00
2019-02-06T12:46:57.815Z,3.20
2019-02-06T12:49:28.457Z,3.70
2019-02-06T12:51:59.381Z,3.40
2019-02-06T12:54:29.888Z,3.50
2019-02-06T12:57:00.820Z,4.17
2019-02-06T12:59:31.418Z,4.33
2019-02-06T13:02:01.991Z,3.52
2019-02-06T13:04:32.544Z,3.37
2019-02-06T13:07:03.075Z,3.37
2019-02-06T13:09:33.682Z,3.20
2019-02-06T13:12:04.383Z,3.75
2019-02-06T13:14:34.899Z,3.55
2019-02-06T13:17:05.917Z,3.33
2019-02-06T13:19:36.836Z,2.92
2019-02-06T13:22:07.761Z,3.30
2019-02-06T13:24:38.332Z,3.40
2019-02-06T13:27:09.424Z,3.87
2019-02-06T13:29:40.033Z,3.17
2019-02-06T13:32:10.918Z,3.42
2019-02-06T13:34:41.549Z,3.80
2019-02-06T13:37:12.133Z,3.60
2019-02-06T13:39:43.152Z,2.95
2019-02-06T13:42:14.269Z,3.60
2019-02-06T13:44:45.230Z,3.67
2019-02-06T13:47:16.149Z,3.60
2019-02-06T13:49:47.105Z,3.67
2019-02-06T13:52:17.696Z,3.40
2019-02-06T13:54:48.241Z,3.87
2019-02-06T13:57:19.183Z,3.77
2019-02-06T13:59:50.140Z,3.80
2019-02-06T14:02:20.758Z,3.98
2019-02-06T14:04:52.636Z,4.22
2019-02-06T14:07:23.538Z,4.20
2019-02-06T14:09:54.120Z,4.10
2019-02-06T14:12:24.737Z,4.33
2019-02-06T14:14:55.793Z,4.03
2019-02-06T14:17:26.337Z,4.08
2019-02-06T14:19:57.529Z,4.65
2019-02-06T14:22:28.523Z,4.20
2019-02-06T14:25:07.547Z,4.42
2019-02-06T14:28:20.653Z,4.40
2019-02-06T14:31:20.388Z,4.20
2019-02-06T14:34:37.900Z,3.70
2019-02-06T14:37:51.852Z,4.30
2019-02-06T14:41:08.520Z,5.00
2019-02-06T14:44:00.610Z,4.30
2019-02-06T14:46:56.626Z,4.15
2019-02-06T14:49:37.511Z,4.58
2019-02-06T14:52:39.095Z,5.28
2019-02-06T14:55:46.960Z,4.25
2019-02-06T14:58:39.711Z,5.58
2019-02-06T15:01:38.832Z,5.80
2019-02-06T15:04:57.370Z,5.03
2019-02-06T15:08:27.083Z,5.53
2019-02-06T15:11:38.537Z,5.85
2019-02-06T15:14:52.029Z,5.83
2019-02-06T15:18:12.424Z,4.75
2019-02-06T15:21:24.304Z,4.53
2019-02-06T15:24:23.821Z,4.72
2019-02-06T15:27:45.404Z,4.62
2019-02-06T15:30:34.122Z,4.35
2019-02-06T15:33:33.432Z,4.85
2019-02-06T15:36:32.817Z,3.87
2019-02-06T15:39:35.638Z,4.33
2019-02-06T15:42:40.077Z,5.22
2019-02-06T15:45:41.445Z,5.03
2019-02-06T15:48:46.722Z,4.78
2019-02-06T15:51:40.258Z,6.03
2019-02-06T15:54:53.542Z,6.20
2019-02-06T15:57:43.650Z,6.83
2019-02-06T16:00:29.192Z,6.30
2019-02-06T16:04:09.609Z,6.67
2019-02-06T16:07:12.580Z,9.23
2019-02-06T16:10:19.573Z,7.30
2019-02-06T16:13:31.933Z,6.87
2019-02-06T16:16:46.482Z,6.72
2019-02-06T16:19:50.456Z,6.00
2019-02-06T16:22:59.005Z,7.12
2019-02-06T16:25:55.182Z,8.75
2019-02-06T16:28:55.300Z,10.60
2019-02-06T16:31:56.374Z,11.12
2019-02-06T16:35:03.478Z,10.35
2019-02-06T16:38:21.873Z,8.80
2019-02-06T16:41:36.311Z,5.80
2019-02-06T16:44:51.407Z,5.33
2019-02-06T16:47:50.198Z,6.53
2019-02-06T16:50:54.094Z,7.12
2019-02-06T16:53:48.310Z,7.90
2019-02-06T16:57:01.311Z,8.23
2019-02-06T17:00:22.150Z,9.45
2019-02-06T17:03:52.657Z,10.58
2019-02-06T17:06:59.231Z,11.53
2019-02-06T17:09:57.307Z,10.82
2019-02-06T17:12:57.585Z,11.48
2019-02-06T17:15:51.101Z,11.15
2019-02-06T17:19:11.661Z,10.70
2019-02-06T17:22:19.789Z,10.32
2019-02-06T17:25:35.719Z,11.53
2019-02-06T17:28:54.462Z,10.90
2019-02-06T17:31:57.113Z,11.03
2019-02-06T17:35:05.624Z,11.08
2019-02-06T17:38:08.074Z,10.70
2019-02-06T17:41:23.248Z,8.40
2019-02-06T17:44:13.435Z,10.10
2019-02-06T17:47:27.440Z,9.60
2019-02-06T17:50:38.734Z,10.10
2019-02-06T17:53:35.608Z,8.95
2019-02-06T17:56:06.548Z,9.55
2019-02-06T17:58:40.868Z,9.60
2019-02-06T18:01:16.723Z,9.55
2019-02-06T18:03:54.788Z,10.43
2019-02-06T18:06:25.865Z,10.37
2019-02-06T18:08:57.260Z,9.98
2019-02-06T18:11:28.192Z,9.88
2019-02-06T18:14:00.332Z,10.48
2019-02-06T18:16:32.563Z,9.68
2019-02-06T18:19:04.759Z,10.03
2019-02-06T18:21:36.019Z,10.30
2019-02-06T18:24:07.073Z,10.32
2019-02-06T18:26:43.078Z,9.93
2019-02-06T18:29:13.988Z,10.28
2019-02-06T18:31:45.060Z,10.55
2019-02-06T18:34:16.056Z,10.53
2019-02-06T18:36:47.453Z,11.12
2019-02-06T18:39:18.858Z,10.15
2019-02-06T18:41:49.877Z,10.35
2019-02-06T18:44:25.031Z,10.45
2019-02-06T18:46:58.079Z,10.55
2019-02-06T18:49:29.159Z,10.82
2019-02-06T18:52:00.412Z,10.72
2019-02-06T18:54:54.957Z,11.33
2019-02-06T18:57:45.248Z,10.53
2019-02-06T19:00:21.807Z,10.60
2019-02-06T19:02:53.901Z,10.80
2019-02-06T19:05:28.390Z,10.18
2019-02-06T19:07:59.905Z,10.05
2019-02-06T19:10:31.437Z,9.90
2019-02-06T19:13:03.086Z,9.78
2019-02-06T19:15:35.754Z,11.05
2019-02-06T19:18:10.515Z,8.40
2019-02-06T19:20:41.520Z,8.48
2019-02-06T19:23:13.264Z,8.28
2019-02-06T19:25:49.494Z,8.35
2019-02-06T19:28:42.278Z,8.60
2019-02-06T19:31:14.922Z,8.55
2019-02-06T19:33:49.531Z,10.53
2019-02-06T19:36:20.879Z,9.98
2019-02-06T19:38:52.946Z,10.68
2019-02-06T19:41:23.772Z,10.10
2019-02-06T19:44:01.844Z,10.38
2019-02-06T19:46:47.720Z,10.90
2019-02-06T19:49:20.137Z,11.00
2019-02-06T19:51:52.389Z,11.12
2019-02-06T19:54:23.923Z,10.67
2019-02-06T19:56:55.125Z,10.85
2019-02-06T19:59:28.553Z,10.55
2019-02-06T20:02:00.090Z,11.07
2019-02-06T20:04:31.447Z,11.22
2019-02-06T20:07:02.480Z,11.03
2019-02-06T20:09:37.148Z,10.35
2019-02-06T20:12:12.704Z,10.70
2019-02-06T20:14:45.609Z,11.22
2019-02-06T20:17:17.406Z,11.03
2019-02-06T20:19:48.840Z,10.70
2019-02-06T20:22:24.534Z,10.93
2019-02-06T20:24:55.915Z,11.13
2019-02-06T20:27:27.713Z,11.45
2019-02-06T20:29:58.936Z,10.40
2019-02-06T20:32:29.976Z,11.48
2019-02-06T20:35:01.264Z,10.55
2019-02-06T20:37:32.687Z,11.50
2019-02-06T20:40:04.672Z,11.53
2019-02-06T20:42:35.962Z,12.15
2019-02-06T20:45:09.192Z,11.80
2019-02-06T20:47:40.740Z,11.08
2019-02-06T20:50:45.551Z,11.12
2019-02-06T20:53:18.174Z,10.15
2019-02-06T20:55:49.567Z,10.00
2019-02-06T20:58:21.061Z,9.30
2019-02-06T21:00:52.685Z,10.15
2019-02-06T21:03:25.056Z,10.23
2019-02-06T21:05:57.042Z,9.60
2019-02-06T21:08:34.668Z,8.85
2019-02-06T21:11:06.389Z,8.30
2019-02-06T21:13:43.023Z,8.38
2019-02-06T21:16:14.104Z,8.18
2019-02-06T21:18:44.916Z,8.10
2019-02-06T21:21:18.438Z,7.80
2019-02-06T21:23:54.393Z,7.62
2019-02-06T21:26:29.491Z,7.83
2019-02-06T21:29:01.937Z,7.90
2019-02-06T21:31:33.046Z,7.90
2019-02-06T21:34:06.070Z,9.63
2019-02-06T21:36:36.870Z,8.60
2019-02-06T21:39:10.200Z,9.15
2019-02-06T21:42:08.214Z,10.05
2019-02-06T21:45:02.971Z,10.65
2019-02-06T21:48:00.320Z,10.48
2019-02-06T21:51:07.576Z,10.15
2019-02-06T21:53:50.546Z,10.63
2019-02-06T21:56:44.508Z,11.12
2019-02-06T21:59:24.791Z,12.65
2019-02-06T22:02:10.549Z,12.43
2019-02-06T22:04:59.226Z,14.45
2019-02-06T22:07:53.145Z,15.60
2019-02-06T22:10:29.777Z,14.15
2019-02-06T22:13:07.898Z,15.40
2019-02-06T22:15:45.928Z,17.23
2019-02-06T22:18:24.960Z,15.85
2019-02-06T22:21:04.153Z,16.37
2019-02-06T22:23:43.316Z,17.80
2019-02-06T22:26:16.715Z,16.40
2019-02-06T22:29:15.811Z,15.43
2019-02-06T22:31:53.200Z,16.23
2019-02-06T22:34:28.095Z,15.58
2019-02-06T22:37:07.236Z,15.53
2019-02-06T22:39:43.704Z,14.50
2019-02-06T22:42:22.709Z,14.65
2019-02-06T22:44:58.776Z,13.03
2019-02-06T22:47:39.003Z,14.47
2019-02-06T22:50:12.729Z,13.08
2019-02-06T22:52:46.695Z,11.28
2019-02-06T22:55:23.902Z,12.05
2019-02-06T22:58:02.995Z,11.22
2019-02-06T23:01:00.985Z,10.95
2019-02-06T23:03:50.661Z,11.50
2019-02-06T23:06:22.200Z,11.10
2019-02-06T23:08:53.383Z,10.80
2019-02-06T23:11:26.035Z,11.08
2019-02-06T23:13:57.156Z,10.35
2019-02-06T23:16:28.276Z,9.58
2019-02-06T23:18:59.659Z,10.20
2019-02-06T23:21:30.854Z,9.50
2019-02-06T23:24:01.937Z,10.05
2019-02-06T23:26:32.830Z,9.28
2019-02-06T23:29:07.774Z,10.65
2019-02-06T23:31:39.842Z,9.20
2019-02-06T23:34:10.918Z,9.30
2019-02-06T23:36:42.003Z,9.60
2019-02-06T23:39:16.375Z,9.43
2019-02-06T23:41:48.184Z,9.10
2019-02-06T23:44:28.693Z,9.95
2019-02-06T23:46:52.747Z,9.63
2019-02-06T23:49:23.912Z,9.15
2019-02-06T23:51:54.954Z,9.43
2019-02-06T23:54:25.969Z,10.20
2019-02-06T23:56:57.919Z,10.13
2019-02-06T23:59:29.167Z,9.53
